Time;durP1;ratioP1;P1;durP2;ratioP2;P2;SDS_P1;SDS_P2;PMS_P1;PMS_P2;Temp;Humidity;BMP_temperature;BMP_pressure;BME280_temperature;BME280_humidity;BME280_pressure;Samples;Min_cycle;Max_cycle;Signal;HPM_P1;HPM_P2
2022/07/27 00:01:07;;;;;;;0.93;0.93;;;25.20;64.20;;;;;;5010289;28;20177;-71
2022/07/27 00:03:32;;;;;;;0.80;0.80;;;25.10;64.10;;;;;;5009646;28;20181;-71
2022/07/27 00:05:58;;;;;;;0.85;0.80;;;25.10;64.10;;;;;;5010208;28;20635;-71
2022/07/27 00:08:24;;;;;;;0.75;0.75;;;25.10;64.20;;;;;;4993886;28;20204;-71
2022/07/27 00:10:51;;;;;;;1.23;0.95;;;25.10;64.10;;;;;;5010412;28;20191;-71
2022/07/27 00:13:18;;;;;;;1.25;0.80;;;25.10;65.00;;;;;;5010329;28;20692;-71
2022/07/27 00:15:44;;;;;;;1.55;1.00;;;25.10;64.10;;;;;;5009744;28;20242;-71
2022/07/27 00:18:10;;;;;;;1.17;1.00;;;25.10;64.20;;;;;;4993789;28;20188;-72
2022/07/27 00:20:38;;;;;;;0.80;0.80;;;25.10;64.40;;;;;;4994027;28;20196;-71
2022/07/27 00:23:04;;;;;;;1.20;1.10;;;25.10;64.20;;;;;;4993659;28;20193;-71
2022/07/27 00:25:30;;;;;;;0.70;0.70;;;25.10;64.30;;;;;;5009441;28;20195;-71
2022/07/27 00:27:56;;;;;;;0.80;0.80;;;25.10;64.20;;;;;;4993521;28;20177;-71
2022/07/27 00:30:23;;;;;;;0.90;0.90;;;25.10;65.00;;;;;;5009863;28;20541;-71
2022/07/27 00:32:49;;;;;;;0.73;0.73;;;25.10;64.30;;;;;;5009896;28;20193;-71
2022/07/27 00:35:15;;;;;;;0.80;0.80;;;25.10;64.30;;;;;;5009117;28;20200;-71
2022/07/27 00:37:40;;;;;;;0.80;0.80;;;25.10;64.40;;;;;;5009524;28;20209;-71
2022/07/27 00:40:07;;;;;;;0.88;0.88;;;25.10;64.30;;;;;;4993121;28;20188;-72
2022/07/27 00:42:33;;;;;;;0.98;0.70;;;25.10;64.30;;;;;;5009642;28;20563;-72
2022/07/27 00:44:59;;;;;;;0.70;0.70;;;25.10;64.30;;;;;;5009041;28;20271;-71
2022/07/27 00:47:26;;;;;;;0.70;0.70;;;25.10;64.40;;;;;;5009375;28;20721;-71
2022/07/27 00:49:52;;;;;;;0.77;0.77;;;25.00;64.20;;;;;;5009853;28;20220;-71
2022/07/27 00:52:19;;;;;;;0.80;0.80;;;25.10;64.40;;;;;;4993157;28;20189;-71
2022/07/27 00:54:46;;;;;;;0.70;0.70;;;25.10;64.50;;;;;;5008743;28;20213;-71
2022/07/27 00:57:14;;;;;;;0.88;0.88;;;25.10;64.50;;;;;;5008928;28;20219;-72
2022/07/27 00:59:41;;;;;;;1.30;0.95;;;25.10;64.50;;;;;;5009531;28;20180;-72
2022/07/27 01:02:08;;;;;;;0.80;0.80;;;25.10;64.50;;;;;;5009216;28;20184;-71
2022/07/27 01:04:34;;;;;;;1.10;1.00;;;25.10;64.50;;;;;;4992574;28;20193;-71
2022/07/27 01:07:03;;;;;;;1.00;0.90;;;25.00;64.40;;;;;;5009241;28;20746;-71
2022/07/27 01:12:16;;;;;;;1.63;1.00;;;25.10;64.50;;;;;;4992871;28;20181;-71
2022/07/27 01:14:42;;;;;;;1.33;0.90;;;25.00;64.40;;;;;;5008415;28;20291;-71
2022/07/27 01:17:08;;;;;;;1.73;0.80;;;25.00;64.30;;;;;;5009223;28;20226;-71
2022/07/27 01:19:35;;;;;;;0.70;0.70;;;25.10;64.60;;;;;;5009045;28;20552;-71
2022/07/27 01:22:05;;;;;;;0.63;0.60;;;25.00;64.40;;;;;;5008949;28;20191;-71
2022/07/27 01:24:32;;;;;;;0.70;0.70;;;25.00;64.50;;;;;;5008257;28;20200;-71
2022/07/27 01:27:00;;;;;;;1.77;1.00;;;25.10;64.60;;;;;;5008810;28;20633;-71
2022/07/27 01:29:27;;;;;;;1.67;0.70;;;25.00;64.50;;;;;;5008674;28;20295;-71
2022/07/27 01:31:53;;;;;;;0.82;0.77;;;25.00;64.50;;;;;;4992350;28;20181;-71
2022/07/27 01:34:19;;;;;;;0.80;0.60;;;25.00;64.60;;;;;;5008295;28;20225;-71
2022/07/27 01:36:45;;;;;;;1.00;0.90;;;25.10;64.60;;;;;;5008349;28;20243;-71
2022/07/27 01:39:12;;;;;;;0.77;0.77;;;25.10;64.70;;;;;;5008186;28;20184;-71
2022/07/27 01:41:38;;;;;;;0.70;0.70;;;25.00;64.60;;;;;;5008469;28;20185;-71
2022/07/27 01:44:04;;;;;;;0.80;0.80;;;25.00;64.70;;;;;;4991562;28;20189;-71
2022/07/27 01:46:30;;;;;;;0.80;0.80;;;25.00;64.60;;;;;;5008606;28;20208;-71
2022/07/27 01:48:56;;;;;;;1.15;1.10;;;25.00;64.60;;;;;;5008621;28;20193;-71
2022/07/27 01:51:22;;;;;;;0.90;0.90;;;25.00;64.60;;;;;;5007931;28;20672;-71
2022/07/27 01:53:48;;;;;;;1.00;1.00;;;25.00;64.60;;;;;;4976489;28;20247;-71
2022/07/27 01:56:14;;;;;;;1.08;0.98;;;25.00;64.60;;;;;;4991548;28;20682;-71
2022/07/27 01:58:42;;;;;;;0.80;0.75;;;25.00;64.60;;;;;;5008611;28;20193;-71
2022/07/27 02:01:08;;;;;;;1.42;0.90;;;25.00;64.90;;;;;;4991978;28;20275;-71
2022/07/27 02:03:35;;;;;;;0.75;0.75;;;25.00;64.60;;;;;;4991673;28;20217;-71
2022/07/27 02:06:02;;;;;;;1.00;0.90;;;25.00;64.70;;;;;;4991442;28;20300;-71
2022/07/27 02:08:28;;;;;;;0.80;0.80;;;25.00;64.60;;;;;;4991832;28;20271;-71
2022/07/27 02:13:43;;;;;;;0.85;0.85;;;25.00;64.80;;;;;;4991160;28;20299;-70
2022/07/27 02:16:09;;;;;;;0.93;0.70;;;25.00;64.70;;;;;;4991957;28;20220;-71
2022/07/27 02:18:35;;;;;;;0.70;0.70;;;25.00;64.70;;;;;;4991903;28;20189;-71
2022/07/27 02:21:00;;;;;;;0.80;0.80;;;25.00;64.80;;;;;;4991969;28;20173;-72
2022/07/27 02:23:26;;;;;;;0.90;0.90;;;25.00;64.70;;;;;;4991703;28;20195;-71
2022/07/27 02:25:52;;;;;;;0.73;0.73;;;25.00;64.80;;;;;;4991104;28;20243;-71
2022/07/27 02:28:18;;;;;;;0.70;0.70;;;25.00;64.80;;;;;;4991866;28;20239;-71
2022/07/27 02:30:44;;;;;;;1.30;0.80;;;24.90;64.70;;;;;;4992107;28;20199;-71
2022/07/27 02:33:10;;;;;;;0.93;0.80;;;24.90;64.70;;;;;;4991842;28;20667;-71
2022/07/27 02:35:35;;;;;;;0.80;0.80;;;24.90;64.70;;;;;;4991160;28;20196;-71
2022/07/27 02:38:01;;;;;;;0.70;0.70;;;25.00;64.80;;;;;;4991534;28;20188;-71
2022/07/27 02:40:27;;;;;;;0.80;0.80;;;24.90;64.70;;;;;;4991606;28;20185;-72
2022/07/27 02:42:53;;;;;;;0.65;0.65;;;25.00;64.80;;;;;;4991547;28;20240;-72
2022/07/27 02:45:19;;;;;;;1.00;1.00;;;25.00;64.80;;;;;;4991037;28;20247;-71
2022/07/27 02:47:44;;;;;;;0.70;0.70;;;25.00;64.80;;;;;;4988072;28;20216;-71
2022/07/27 02:50:11;;;;;;;0.82;0.77;;;24.90;64.70;;;;;;5007951;28;20195;-72
2022/07/27 02:52:37;;;;;;;1.35;0.80;;;25.00;64.90;;;;;;4991284;28;20200;-71
2022/07/27 02:55:04;;;;;;;0.77;0.77;;;24.90;64.80;;;;;;5007403;28;20217;-71
2022/07/27 02:57:33;;;;;;;1.15;0.70;;;25.00;64.90;;;;;;4990955;28;20216;-72
2022/07/27 03:00:00;;;;;;;0.73;0.73;;;24.90;64.80;;;;;;4959599;28;20208;-72
2022/07/27 03:02:26;;;;;;;0.90;0.90;;;25.00;65.00;;;;;;4991395;28;20180;-71
2022/07/27 03:04:52;;;;;;;0.98;0.73;;;25.00;64.90;;;;;;5009122;28;20185;-71
2022/07/27 03:07:17;;;;;;;0.82;0.80;;;24.90;64.80;;;;;;5011198;28;20299;-71
2022/07/27 03:09:43;;;;;;;0.60;0.60;;;25.00;65.00;;;;;;4995229;28;20188;-71
2022/07/27 03:12:09;;;;;;;0.77;0.70;;;24.90;64.80;;;;;;5011214;28;20609;-71
2022/07/27 03:14:35;;;;;;;1.02;1.02;;;24.90;64.90;;;;;;5010954;28;20205;-71
2022/07/27 03:17:00;;;;;;;0.80;0.80;;;24.90;64.90;;;;;;4994731;28;20205;-71
2022/07/27 03:19:26;;;;;;;0.80;0.80;;;24.90;64.90;;;;;;4994694;28;20189;-72
2022/07/27 03:21:52;;;;;;;0.70;0.70;;;24.90;64.90;;;;;;4978592;28;20273;-71
2022/07/27 03:24:18;;;;;;;1.10;1.00;;;24.90;64.90;;;;;;4994233;28;20177;-71
2022/07/27 03:26:45;;;;;;;0.60;0.60;;;24.90;64.90;;;;;;4978613;28;20612;-71
2022/07/27 03:29:12;;;;;;;0.80;0.80;;;24.90;64.90;;;;;;5011196;28;20653;-71
2022/07/27 03:31:38;;;;;;;1.42;0.80;;;24.90;64.90;;;;;;5010901;28;20185;-71
2022/07/27 03:34:04;;;;;;;0.90;0.80;;;24.90;64.90;;;;;;4977662;28;20228;-71
2022/07/27 03:36:29;;;;;;;0.95;0.95;;;24.90;64.90;;;;;;4978165;28;20212;-71
2022/07/27 03:38:55;;;;;;;0.98;0.80;;;24.90;64.90;;;;;;4994483;28;20199;-71
2022/07/27 03:41:21;;;;;;;0.80;0.80;;;24.90;64.90;;;;;;4994469;28;20185;-71
2022/07/27 03:43:47;;;;;;;0.90;0.90;;;24.90;64.90;;;;;;5010180;28;20279;-70
2022/07/27 03:46:13;;;;;;;0.75;0.75;;;24.90;64.90;;;;;;5010424;28;20208;-71
2022/07/27 03:48:40;;;;;;;0.80;0.80;;;24.90;65.00;;;;;;4974928;28;20185;-71
2022/07/27 03:51:06;;;;;;;1.63;0.88;;;24.90;64.90;;;;;;4991229;28;20189;-71
2022/07/27 03:53:32;;;;;;;0.85;0.80;;;24.90;65.00;;;;;;4990868;28;20252;-71
2022/07/27 03:55:57;;;;;;;0.73;0.73;;;24.90;65.10;;;;;;4991708;28;20245;-71
2022/07/27 03:58:23;;;;;;;0.70;0.70;;;24.90;65.10;;;;;;5010402;28;20196;-71
2022/07/27 04:00:49;;;;;;;0.85;0.85;;;24.80;65.00;;;;;;5010467;28;20184;-71
2022/07/27 04:03:16;;;;;;;0.60;0.60;;;24.90;65.10;;;;;;5010478;28;20203;-71
2022/07/27 04:05:43;;;;;;;0.77;0.77;;;24.90;65.00;;;;;;5009934;28;20235;-71
2022/07/27 04:08:09;;;;;;;0.70;0.70;;;24.90;65.00;;;;;;4994226;28;20264;-71
2022/07/27 04:10:35;;;;;;;0.63;0.63;;;24.90;65.00;;;;;;5010266;28;20184;-71
2022/07/27 04:13:01;;;;;;;0.68;0.68;;;24.90;65.10;;;;;;5010387;28;20566;-71
2022/07/27 04:15:27;;;;;;;0.77;0.77;;;24.90;65.10;;;;;;4992896;28;20250;-71
2022/07/27 04:17:53;;;;;;;1.67;0.88;;;24.90;65.20;;;;;;4993705;28;20184;-71
2022/07/27 04:20:19;;;;;;;0.98;0.98;;;24.80;64.60;;;;;;5009944;28;20196;-72
2022/07/27 04:22:45;;;;;;;0.85;0.85;;;24.60;62.50;;;;;;5009957;28;20238;-71
2022/07/27 04:25:11;;;;;;;0.80;0.80;;;;;;;;;;5009725;28;20185;-71
2022/07/27 04:27:37;;;;;;;0.90;0.90;;;24.40;60.60;;;;;;5009669;28;20208;-71
2022/07/27 04:30:05;;;;;;;1.77;0.95;;;24.30;61.00;;;;;;5009809;28;20243;-71
2022/07/27 04:32:30;;;;;;;0.98;0.98;;;24.20;60.40;;;;;;5009899;28;20275;-71
2022/07/27 04:34:56;;;;;;;0.90;0.90;;;24.20;60.60;;;;;;5009103;28;20359;-71
2022/07/27 04:37:22;;;;;;;1.08;1.08;;;24.30;60.50;;;;;;5009465;28;20213;-70
2022/07/27 04:39:48;;;;;;;2.90;1.38;;;24.20;60.70;;;;;;5009662;28;20177;-71
2022/07/27 04:42:14;;;;;;;1.17;1.17;;;24.10;60.60;;;;;;4993171;28;20185;-71
2022/07/27 04:44:39;;;;;;;1.58;1.40;;;24.10;60.60;;;;;;5009195;28;20677;-70
2022/07/27 04:47:06;;;;;;;1.63;1.52;;;24.10;60.80;;;;;;4993032;28;20354;-71
2022/07/27 04:49:32;;;;;;;1.50;1.40;;;24.10;60.80;;;;;;5009483;28;20334;-71
2022/07/27 04:51:57;;;;;;;1.70;1.60;;;24.10;60.80;;;;;;5009712;28;20275;-71
2022/07/27 04:54:23;;;;;;;1.40;1.30;;;24.10;60.50;;;;;;5008723;28;20220;-70
2022/07/27 04:56:49;;;;;;;1.50;1.33;;;24.00;59.90;;;;;;5008861;28;20216;-71
2022/07/27 04:59:15;;;;;;;1.95;1.85;;;24.00;60.10;;;;;;5009253;28;20181;-70
2022/07/27 05:01:40;;;;;;;1.95;1.83;;;24.00;60.20;;;;;;5009492;28;20612;-70
2022/07/27 05:04:06;;;;;;;1.50;1.40;;;24.20;61.20;;;;;;5008512;28;20192;-69
2022/07/27 05:06:32;;;;;;;1.98;1.70;;;24.30;61.20;;;;;;5009013;28;20227;-70
2022/07/27 05:08:58;;;;;;;1.40;1.30;;;24.40;61.30;;;;;;5009116;28;20287;-69
2022/07/27 05:11:24;;;;;;;2.13;1.50;;;24.40;61.50;;;;;;4992706;28;20189;-69
2022/07/27 05:13:50;;;;;;;1.75;1.65;;;24.40;61.30;;;;;;5008359;28;20677;-69
2022/07/27 05:16:15;;;;;;;1.85;1.75;;;24.50;61.40;;;;;;5007704;28;20204;-70
2022/07/27 05:18:42;;;;;;;1.77;1.67;;;24.50;61.50;;;;;;5007910;28;20227;-70
2022/07/27 05:21:08;;;;;;;1.60;1.50;;;24.50;61.50;;;;;;4991274;28;20193;-70
2022/07/27 05:23:34;;;;;;;1.73;1.63;;;24.50;61.60;;;;;;5007566;28;20189;-69
2022/07/27 05:26:00;;;;;;;1.40;1.30;;;24.50;61.60;;;;;;5007049;28;20654;-70
2022/07/27 05:28:26;;;;;;;1.88;1.60;;;24.50;61.60;;;;;;4974619;28;20288;-70
2022/07/27 05:30:52;;;;;;;1.98;1.42;;;24.50;61.60;;;;;;4975833;28;20185;-70
2022/07/27 05:33:18;;;;;;;1.55;1.45;;;24.50;61.80;;;;;;4975695;28;20240;-70
2022/07/27 05:35:43;;;;;;;1.90;1.50;;;24.50;61.80;;;;;;5007455;28;20215;-69
2022/07/27 05:38:09;;;;;;;1.67;1.58;;;24.50;61.90;;;;;;5008085;28;20224;-70
2022/07/27 05:40:35;;;;;;;1.80;1.63;;;24.50;61.90;;;;;;4975558;28;20188;-71
2022/07/27 05:43:01;;;;;;;2.28;1.55;;;24.50;61.90;;;;;;4991784;28;20188;-70
2022/07/27 05:45:26;;;;;;;1.80;1.50;;;24.50;61.90;;;;;;5007264;28;20184;-70
2022/07/27 05:47:53;;;;;;;1.85;1.55;;;24.50;62.00;;;;;;4991637;28;20569;-70
2022/07/27 05:50:19;;;;;;;1.60;1.48;;;24.60;62.00;;;;;;4975395;28;20191;-70
2022/07/27 05:52:45;;;;;;;1.55;1.45;;;24.60;62.10;;;;;;4991820;28;20209;-71
2022/07/27 05:55:11;;;;;;;1.75;1.55;;;24.60;62.10;;;;;;4973128;28;20244;-70
2022/07/27 05:57:39;;;;;;;2.10;1.90;;;24.50;62.00;;;;;;5007525;28;20587;-70
2022/07/27 06:00:07;;;;;;;1.67;1.58;;;24.50;62.00;;;;;;5007847;28;20180;-71
2022/07/27 06:02:38;;;;;;;1.40;1.30;;;24.60;62.20;;;;;;4991560;28;20202;-70
2022/07/27 06:05:04;;;;;;;2.28;1.40;;;24.50;62.00;;;;;;4990905;28;20196;-70
2022/07/27 06:10:15;;;;;;;2.13;1.40;;;24.60;62.20;;;;;;4991333;28;20184;-70
2022/07/27 06:12:43;;;;;;;1.67;1.50;;;24.60;62.20;;;;;;5007603;28;20181;-70
2022/07/27 06:15:11;;;;;;;1.83;1.48;;;24.50;62.10;;;;;;4990626;28;20295;-70
2022/07/27 06:17:38;;;;;;;1.40;1.30;;;24.60;62.20;;;;;;5006997;28;20227;-71
2022/07/27 06:20:06;;;;;;;1.52;1.40;;;24.60;62.30;;;;;;4978300;28;20193;-71
2022/07/27 06:22:43;;;;;;;2.17;1.52;;;24.60;62.30;;;;;;5007600;28;20568;-70
2022/07/27 06:25:09;;;;;;;2.10;1.50;;;24.60;62.30;;;;;;5006943;28;20188;-70
2022/07/27 06:27:36;;;;;;;2.00;1.40;;;24.60;62.40;;;;;;5006552;28;20211;-71
2022/07/27 06:30:04;;;;;;;1.70;1.60;;;24.60;62.30;;;;;;4994997;28;20188;-70
2022/07/27 06:32:29;;;;;;;1.60;1.50;;;24.60;62.30;;;;;;4983395;28;20793;-71
2022/07/27 06:34:55;;;;;;;1.70;1.60;;;24.60;62.40;;;;;;4985528;28;20300;-71
2022/07/27 06:37:21;;;;;;;2.55;1.85;;;24.60;62.30;;;;;;4998887;28;20200;-70
2022/07/27 06:39:47;;;;;;;1.98;1.70;;;24.70;62.40;;;;;;5003081;28;20234;-70
2022/07/27 06:42:13;;;;;;;1.48;1.38;;;24.60;62.30;;;;;;5011069;28;20212;-70
2022/07/27 06:44:43;;;;;;;1.90;1.50;;;24.60;62.30;;;;;;5010599;28;20560;-70
2022/07/27 06:47:09;;;;;;;1.92;1.83;;;24.70;62.40;;;;;;5011178;28;20219;-70
2022/07/27 06:49:34;;;;;;;1.98;1.63;;;24.70;62.50;;;;;;5010298;28;20200;-71
2022/07/27 06:52:00;;;;;;;1.63;1.52;;;24.60;62.40;;;;;;5010344;28;20189;-70
2022/07/27 06:54:26;;;;;;;1.55;1.45;;;24.60;62.40;;;;;;4993732;28;20300;-70
2022/07/27 06:56:52;;;;;;;1.50;1.40;;;24.60;62.40;;;;;;4994197;28;20303;-71
2022/07/27 06:59:18;;;;;;;1.90;1.50;;;24.70;62.40;;;;;;4994859;28;20212;-70
2022/07/27 07:01:44;;;;;;;1.70;1.60;;;24.60;62.30;;;;;;4994548;28;20264;-70
2022/07/27 07:04:09;;;;;;;1.50;1.40;;;24.70;62.50;;;;;;4993588;28;20192;-71
2022/07/27 07:06:36;;;;;;;1.55;1.45;;;24.70;62.50;;;;;;4994701;28;20209;-70
2022/07/27 07:09:02;;;;;;;1.50;1.40;;;24.70;62.50;;;;;;4994203;28;20216;-70
2022/07/27 07:11:28;;;;;;;1.60;1.50;;;24.70;62.50;;;;;;5010365;28;20197;-70
2022/07/27 07:13:54;;;;;;;1.65;1.55;;;24.70;62.50;;;;;;5004707;28;20213;-70
2022/07/27 07:16:20;;;;;;;1.67;1.58;;;24.70;62.60;;;;;;4993157;28;20286;-70
2022/07/27 07:18:46;;;;;;;1.77;1.45;;;24.70;62.50;;;;;;5010545;28;20181;-70
2022/07/27 07:21:18;;;;;;;2.00;1.90;;;24.70;62.60;;;;;;4977719;28;20217;-71
2022/07/27 07:23:44;;;;;;;1.80;1.65;;;24.70;62.50;;;;;;4994033;28;20189;-70
2022/07/27 07:26:10;;;;;;;1.80;1.70;;;24.70;62.60;;;;;;5009632;28;20204;-70
2022/07/27 07:28:36;;;;;;;1.50;1.40;;;24.70;62.60;;;;;;4993920;28;20199;-72
2022/07/27 07:31:02;;;;;;;1.92;1.73;;;24.70;62.50;;;;;;4993698;28;20193;-71
2022/07/27 07:33:28;;;;;;;2.58;1.48;;;24.70;62.70;;;;;;5009951;28;20591;-70
2022/07/27 07:35:53;;;;;;;1.60;1.50;;;24.80;62.70;;;;;;4976859;28;20205;-70
2022/07/27 07:38:19;;;;;;;1.92;1.75;;;24.80;62.90;;;;;;4992338;28;20196;-70
2022/07/27 07:40:45;;;;;;;2.10;1.95;;;24.80;62.90;;;;;;4975639;28;20192;-70
2022/07/27 07:43:12;;;;;;;1.52;1.42;;;24.80;62.80;;;;;;4991986;28;20236;-70
2022/07/27 07:45:39;;;;;;;3.28;2.00;;;24.80;62.80;;;;;;4975314;28;20356;-70
2022/07/27 07:48:06;;;;;;;1.80;1.70;;;24.80;62.80;;;;;;5008266;28;20185;-70
2022/07/27 07:50:32;;;;;;;1.80;1.70;;;24.80;62.80;;;;;;5007467;28;20184;-70
2022/07/27 07:52:58;;;;;;;1.73;1.55;;;24.80;62.80;;;;;;4992276;28;20185;-71
2022/07/27 07:55:27;;;;;;;2.38;1.60;;;24.80;62.80;;;;;;4993115;28;20220;-70
2022/07/27 07:57:54;;;;;;;4.00;1.88;;;24.80;62.80;;;;;;5009946;28;20747;-70
2022/07/27 08:00:20;;;;;;;1.50;1.40;;;24.80;62.80;;;;;;5009818;28;20185;-70
2022/07/27 08:02:50;;;;;;;1.95;1.77;;;24.80;62.90;;;;;;5009122;28;20189;-70
2022/07/27 08:05:16;;;;;;;2.10;1.70;;;24.80;62.90;;;;;;5008732;28;20274;-71
2022/07/27 08:07:44;;;;;;;3.28;1.90;;;24.80;62.90;;;;;;5009459;28;20200;-71
2022/07/27 08:10:12;;;;;;;2.10;1.88;;;24.80;62.80;;;;;;5009828;28;20545;-71
2022/07/27 08:12:42;;;;;;;2.00;1.77;;;24.80;62.80;;;;;;4976748;28;20185;-70
2022/07/27 08:15:10;;;;;;;1.65;1.55;;;24.90;62.90;;;;;;4992351;28;20609;-71
2022/07/27 08:17:36;;;;;;;3.08;1.90;;;24.80;62.80;;;;;;4976968;28;20205;-70
2022/07/27 08:20:05;;;;;;;1.88;1.77;;;24.80;62.80;;;;;;4993277;28;20199;-70
2022/07/27 08:22:31;;;;;;;1.60;1.50;;;24.80;62.90;;;;;;4977089;28;20184;-70
2022/07/27 08:24:57;;;;;;;2.53;1.80;;;24.90;62.90;;;;;;4976215;28;20195;-71
2022/07/27 08:27:23;;;;;;;3.08;1.80;;;24.90;63.00;;;;;;4992945;28;20210;-71
2022/07/27 08:29:49;;;;;;;1.50;1.40;;;24.80;62.90;;;;;;4993335;28;20236;-70
2022/07/27 08:32:15;;;;;;;1.83;1.73;;;24.90;63.00;;;;;;4976885;28;20208;-70
2022/07/27 08:34:41;;;;;;;2.08;1.70;;;24.90;63.10;;;;;;4976080;28;20221;-71
2022/07/27 08:37:06;;;;;;;1.75;1.65;;;24.90;63.00;;;;;;4992836;28;20303;-71
2022/07/27 08:39:32;;;;;;;2.10;1.90;;;24.90;63.10;;;;;;4992836;28;20240;-70
2022/07/27 08:42:04;;;;;;;1.92;1.70;;;24.90;63.20;;;;;;4976505;28;20188;-70
2022/07/27 08:44:32;;;;;;;1.85;1.75;;;24.90;63.20;;;;;;4976266;28;20198;-69
2022/07/27 08:47:01;;;;;;;1.70;1.60;;;24.90;63.30;;;;;;4976565;28;20212;-70
2022/07/27 08:49:29;;;;;;;2.15;1.90;;;24.80;63.30;;;;;;4992828;28;20196;-70
2022/07/27 08:51:56;;;;;;;3.45;1.80;;;24.90;63.30;;;;;;4992979;28;20196;-70
2022/07/27 08:54:24;;;;;;;1.77;1.67;;;24.90;63.30;;;;;;4975736;28;20217;-70
2022/07/27 08:56:50;;;;;;;1.85;1.75;;;24.90;63.20;;;;;;4991953;28;20311;-70
2022/07/27 08:59:16;;;;;;;1.65;1.55;;;24.90;63.20;;;;;;4992428;28;20684;-70
2022/07/27 09:01:42;;;;;;;1.75;1.65;;;24.90;63.20;;;;;;4976189;28;20181;-71
2022/07/27 09:04:08;;;;;;;2.50;1.70;;;24.90;63.30;;;;;;4975802;28;20200;-70
2022/07/27 09:06:47;;;;;;;2.30;2.10;;;24.90;63.40;;;;;;4991564;28;20205;-70
2022/07/27 09:09:19;;;;;;;2.50;1.98;;;24.90;63.40;;;;;;4992553;28;20230;-70
2022/07/27 09:12:07;;;;;;;1.58;1.48;;;24.90;63.20;;;;;;4992397;28;20208;-70
2022/07/27 09:14:36;;;;;;;1.90;1.70;;;24.90;63.40;;;;;;4991333;28;20222;-70
2022/07/27 09:17:27;;;;;;;1.67;1.58;;;25.00;63.40;;;;;;4992277;28;20205;-70
2022/07/27 09:20:06;;;;;;;1.52;1.42;;;24.90;63.40;;;;;;4976255;28;20192;-70
2022/07/27 09:22:49;;;;;;;2.20;1.75;;;24.90;63.40;;;;;;4976021;28;20196;-71
2022/07/27 09:25:19;;;;;;;1.85;1.75;;;25.00;64.20;;;;;;4991452;28;20227;-70
2022/07/27 09:27:47;;;;;;;2.72;1.73;;;25.00;63.50;;;;;;4991742;28;20213;-70
2022/07/27 09:30:18;;;;;;;1.95;1.45;;;25.00;63.40;;;;;;4972806;28;20654;-70
2022/07/27 09:32:56;;;;;;;3.33;1.80;;;25.00;63.40;;;;;;4988817;28;20189;-71
2022/07/27 09:35:27;;;;;;;1.67;1.58;;;25.00;63.40;;;;;;4987769;28;20312;-70
2022/07/27 09:37:53;;;;;;;1.80;1.60;;;25.00;63.40;;;;;;4988931;28;20205;-71
2022/07/27 09:40:22;;;;;;;2.10;1.90;;;25.00;63.40;;;;;;4988463;28;20230;-70
2022/07/27 09:43:11;;;;;;;2.55;1.88;;;25.00;63.50;;;;;;4988529;28;20196;-70
2022/07/27 09:45:39;;;;;;;2.55;1.70;;;25.00;63.60;;;;;;4987877;28;20194;-71
2022/07/27 09:48:15;;;;;;;1.60;1.50;;;25.00;63.50;;;;;;4988382;28;20193;-70
2022/07/27 09:50:59;;;;;;;1.90;1.65;;;25.00;63.50;;;;;;4988520;28;20197;-70
2022/07/27 09:53:31;;;;;;;1.88;1.77;;;25.00;63.50;;;;;;4988528;28;20312;-70
2022/07/27 09:56:09;;;;;;;1.67;1.58;;;25.00;63.60;;;;;;4987661;28;20217;-71
2022/07/27 09:58:48;;;;;;;1.80;1.70;;;25.00;63.60;;;;;;4988337;28;20185;-70
2022/07/27 10:01:20;;;;;;;1.70;1.60;;;25.00;63.70;;;;;;4990494;28;20252;-70
2022/07/27 10:03:53;;;;;;;1.65;1.55;;;25.00;63.80;;;;;;4990878;28;20212;-70
2022/07/27 10:06:21;;;;;;;1.70;1.60;;;25.00;63.80;;;;;;5006463;28;20220;-70
2022/07/27 10:08:50;;;;;;;1.80;1.70;;;25.00;63.80;;;;;;5008011;28;20185;-70
2022/07/27 10:11:19;;;;;;;1.80;1.70;;;25.10;63.70;;;;;;5007741;28;20176;-71
2022/07/27 10:13:46;;;;;;;1.75;1.65;;;25.00;63.50;;;;;;5006917;28;20311;-70
2022/07/27 10:16:22;;;;;;;1.60;1.50;;;25.10;63.70;;;;;;5007138;28;20205;-71
2022/07/27 10:19:06;;;;;;;1.80;1.70;;;25.00;63.80;;;;;;5007652;28;20195;-70
2022/07/27 10:21:35;;;;;;;1.67;1.58;;;25.00;63.70;;;;;;4975180;28;20199;-70
2022/07/27 10:24:09;;;;;;;1.95;1.52;;;25.00;63.70;;;;;;5007605;28;20189;-70
2022/07/27 10:26:41;;;;;;;2.05;1.50;;;25.00;63.80;;;;;;4990530;28;20287;-70
2022/07/27 10:29:13;;;;;;;1.92;1.52;;;25.00;63.80;;;;;;5007460;28;20189;-70
2022/07/27 10:31:59;;;;;;;2.25;1.40;;;25.10;63.80;;;;;;4975158;28;20664;-70
2022/07/27 10:34:34;;;;;;;1.52;1.42;;;25.00;63.80;;;;;;4974613;28;20220;-69
2022/07/27 10:37:24;;;;;;;1.52;1.42;;;25.00;63.60;;;;;;4974886;28;20201;-70
2022/07/27 10:40:32;;;;;;;2.53;1.42;;;25.00;63.70;;;;;;4967976;28;20661;-70
2022/07/27 10:42:39;;;;;;;1.70;1.60;;;25.00;63.80;;;;;;5007494;28;20189;-71
2022/07/27 10:45:16;;;;;;;1.77;1.67;;;25.10;63.90;;;;;;5007299;28;20292;-71
2022/07/27 10:47:50;;;;;;;1.77;1.60;;;25.00;63.90;;;;;;5007292;28;20216;-70
2022/07/27 10:50:16;;;;;;;1.58;1.48;;;25.00;63.90;;;;;;5007485;28;20752;-70
2022/07/27 10:52:49;;;;;;;1.80;1.70;;;25.00;63.90;;;;;;4974673;28;20272;-71
2022/07/27 10:55:30;;;;;;;1.52;1.42;;;25.10;63.70;;;;;;5006591;28;20236;-70
2022/07/27 10:58:02;;;;;;;1.80;1.60;;;25.10;64.00;;;;;;4974770;28;20181;-71
2022/07/27 11:00:49;;;;;;;1.50;1.40;;;25.10;63.80;;;;;;4974698;28;20648;-71
2022/07/27 11:03:22;;;;;;;1.85;1.75;;;25.00;63.70;;;;;;4974602;28;20208;-71
2022/07/27 11:06:19;;;;;;;1.65;1.55;;;25.10;63.80;;;;;;4973699;28;20223;-70
2022/07/27 11:08:48;;;;;;;1.70;1.60;;;25.00;63.80;;;;;;4967866;28;20201;-71
2022/07/27 11:11:23;;;;;;;2.15;1.65;;;25.00;64.00;;;;;;5007114;28;20244;-71
2022/07/27 11:13:53;;;;;;;1.58;1.48;;;25.10;64.00;;;;;;4991107;28;20215;-70
2022/07/27 11:16:19;;;;;;;1.80;1.70;;;25.00;63.70;;;;;;5006386;28;20197;-70
2022/07/27 11:18:56;;;;;;;1.50;1.40;;;25.10;63.70;;;;;;5006832;28;20661;-71
2022/07/27 11:21:26;;;;;;;1.70;1.60;;;25.10;63.70;;;;;;5007021;28;20185;-70
2022/07/27 11:24:02;;;;;;;2.38;1.48;;;25.10;63.60;;;;;;5007087;28;20189;-71
2022/07/27 11:26:36;;;;;;;1.65;1.50;;;25.00;63.20;;;;;;5008745;28;20219;-70
2022/07/27 11:29:05;;;;;;;1.70;1.60;;;25.10;63.50;;;;;;5010673;28;20192;-70
2022/07/27 11:31:31;;;;;;;1.60;1.50;;;25.10;63.40;;;;;;5010545;28;20188;-70
2022/07/27 11:33:59;;;;;;;1.65;1.55;;;25.10;63.50;;;;;;5010645;28;20311;-70
2022/07/27 11:36:45;;;;;;;2.25;1.60;;;25.10;63.60;;;;;;4993466;28;20209;-71
2022/07/27 11:39:15;;;;;;;1.90;1.80;;;25.10;63.90;;;;;;5010401;28;20216;-71
2022/07/27 11:41:42;;;;;;;1.60;1.50;;;25.10;63.80;;;;;;4993922;28;20184;-70
2022/07/27 11:44:18;;;;;;;2.42;1.90;;;25.10;63.70;;;;;;5010515;28;20185;-70
2022/07/27 11:46:46;;;;;;;2.97;1.70;;;25.10;63.70;;;;;;5009556;28;20336;-70
2022/07/27 11:49:27;;;;;;;1.70;1.60;;;25.10;63.90;;;;;;4993821;28;20192;-71
2022/07/27 11:52:06;;;;;;;1.40;1.30;;;25.10;63.70;;;;;;5010015;28;20547;-71
2022/07/27 11:54:39;;;;;;;1.60;1.50;;;25.10;63.60;;;;;;5006438;28;20209;-69
2022/07/27 11:57:11;;;;;;;1.73;1.63;;;25.10;63.40;;;;;;4990391;28;20252;-70
2022/07/27 11:59:42;;;;;;;1.50;1.40;;;25.10;63.40;;;;;;4990616;28;20182;-70
2022/07/27 12:02:16;;;;;;;2.10;1.90;;;25.10;63.50;;;;;;5006943;28;20186;-70
2022/07/27 12:04:51;;;;;;;1.77;1.45;;;25.10;63.60;;;;;;4994038;28;20181;-70
2022/07/27 12:07:32;;;;;;;1.88;1.67;;;25.10;63.70;;;;;;5009785;28;20204;-70
2022/07/27 12:10:01;;;;;;;2.58;1.60;;;25.10;63.80;;;;;;4993775;28;20188;-70
2022/07/27 12:12:31;;;;;;;1.30;1.30;;;25.10;63.40;;;;;;5010067;28;20196;-70
2022/07/27 12:15:19;;;;;;;1.77;1.45;;;25.10;63.80;;;;;;5009108;28;20699;-70
2022/07/27 12:17:47;;;;;;;1.75;1.60;;;25.10;63.50;;;;;;4976597;28;20255;-70
2022/07/27 12:20:19;;;;;;;1.70;1.60;;;25.10;63.80;;;;;;5009730;28;20275;-69
2022/07/27 12:22:52;;;;;;;1.88;1.77;;;25.10;63.60;;;;;;5009533;28;20189;-71
2022/07/27 12:25:18;;;;;;;1.67;1.58;;;25.10;63.60;;;;;;5009017;28;20225;-70
2022/07/27 12:27:59;;;;;;;2.65;1.50;;;25.10;63.50;;;;;;4976917;28;20228;-70
2022/07/27 12:30:40;;;;;;;1.80;1.70;;;25.10;63.40;;;;;;4977564;28;20291;-71
2022/07/27 12:33:26;;;;;;;1.73;1.63;;;25.10;63.70;;;;;;5009343;28;20193;-70
2022/07/27 12:35:52;;;;;;;1.50;1.40;;;25.10;63.80;;;;;;5008482;28;20576;-70
2022/07/27 12:38:18;;;;;;;1.52;1.42;;;25.10;64.10;;;;;;5009395;28;20187;-70
2022/07/27 12:40:54;;;;;;;2.80;1.42;;;25.10;64.30;;;;;;5009303;28;20193;-71
2022/07/27 12:43:23;;;;;;;1.60;1.52;;;25.10;64.00;;;;;;5009100;28;20193;-70
2022/07/27 12:45:52;;;;;;;1.88;1.77;;;25.10;64.00;;;;;;5008367;28;20208;-70
2022/07/27 12:48:25;;;;;;;1.63;1.52;;;25.10;64.00;;;;;;5009129;28;20186;-70
2022/07/27 12:51:02;;;;;;;1.80;1.70;;;25.10;64.00;;;;;;4992930;28;20256;-70
2022/07/27 12:53:30;;;;;;;1.75;1.65;;;25.10;64.00;;;;;;4992764;28;20184;-70
2022/07/27 12:55:59;;;;;;;1.95;1.70;;;25.10;63.80;;;;;;5008223;28;20217;-71
2022/07/27 12:58:25;;;;;;;1.90;1.70;;;25.10;63.50;;;;;;4992567;28;20181;-70
2022/07/27 13:00:51;;;;;;;2.13;1.85;;;25.10;63.70;;;;;;5009199;28;20189;-70
2022/07/27 13:03:17;;;;;;;3.28;1.58;;;25.20;63.90;;;;;;5008907;28;20188;-71